• Join FlightAware (Why Join?)
  • Login
  • US Flag 
04:08PM EDT


 

Airport Tracker/Info


-or-


 

Live Flight TrackerFlight Track Log ✈ KAL984 ✈ 31-Aug-2013 ✈ UIII / IKT - RKSI / ICN

Flight Track Log - Related Links

Times and Time Zones

All times are in EDT time to prevent confusion due to time zone crossing. See the KAL984 flight status page for this flight to view local times or setup timezone preferences in your user account.

Time Position Orientation Groundspeed Altitude Reporting Facility
EDT Latitude Longitude Course Direction KTS MPH feet Rate Location/Type
02:29PM 52.2690 104.3870 90° East 140 161  Level FlightAware
02:29PM 52.2590 104.4240 114° Southeast 164 189 3,000 4,500 Climbing FlightAware
02:30PM 52.2520 104.4490 115° Southeast 174 200 3,900 2,340 Climbing FlightAware
02:30PM 52.2440 104.4730 119° Southeast 186 214 4,600 2,220 Climbing FlightAware
02:30PM 52.2370 104.4990 114° Southeast 191 220 5,400 1,740 Climbing FlightAware
02:30PM 52.2320 104.5180 113° Southeast 219 252 5,600 780 Climbing FlightAware
02:31PM 52.2240 104.5400 121° Southeast 243 280 5,800 1,500 Climbing FlightAware
02:31PM 52.2180 104.5480 141° Southeast 245 282 6,100 2,400 Climbing FlightAware
02:31PM 52.2150 104.5510 149° Southeast 249 287 6,200 1,560 Climbing FlightAware
02:31PM 52.2040 104.5560 164° South 260 299 6,500 2,160 Climbing FlightAware
02:31PM 52.1820 104.5580 177° South 274 315 7,100 2,400 Climbing FlightAware
02:32PM 52.1670 104.5600 175° South 281 323 7,700 2,520 Climbing FlightAware
02:32PM 52.1400 104.5640 175° South 293 337 8,600 2,880 Climbing FlightAware
02:32PM 52.1170 104.5710 169° South 301 346 9,400 3,000 Climbing FlightAware
02:32PM 52.1030 104.5810 156° South 306 352 9,900 1,980 Climbing FlightAware
02:33PM 52.0610 104.6270 146° Southeast 340 391 10,900 1,920 Climbing FlightAware
02:33PM 52.0170 104.6760 146° Southeast 363 418 12,200 2,640 Climbing FlightAware
02:34PM 51.9620 104.7380 145° Southeast 371 427 14,200 2,940 Climbing FlightAware
02:35PM 51.9180 104.7870 146° Southeast 383 441 15,600 2,760 Climbing FlightAware
02:35PM 51.8630 104.8480 146° Southeast 392 451 17,200 2,640 Climbing FlightAware
02:36PM 51.8030 104.9150 145° Southeast 399 459 18,900 1,440 Climbing FlightAware
02:36PM 51.7520 104.9700 146° Southeast 401 461 19,000 60 Climbing FlightAware
02:37PM 51.7060 105.0210 146° Southeast 400 460 19,000 780 Level FlightAware
02:38PM 51.6480 105.0840 146° Southeast 406 467 19,900 1,800 Climbing FlightAware
02:38PM 51.5900 105.1470 146° Southeast 416 479 21,300 2,100 Climbing FlightAware
02:39PM 51.5380 105.2030 146° Southeast 424 488 22,400 2,100 Climbing FlightAware
02:39PM 51.4710 105.2750 146° Southeast 432 497 23,800 1,980 Climbing FlightAware
02:40PM 51.4110 105.3380 147° Southeast 440 506 24,900 1,620 Climbing FlightAware
02:40PM 51.3650 105.3860 147° Southeast 447 514 25,600 1,380 Climbing FlightAware
02:41PM 51.3060 105.4490 146° Southeast 457 526 26,400 660 Climbing FlightAware
02:42PM 51.2430 105.5160 146° Southeast 458 527 26,500 960 Climbing FlightAware
02:42PM 51.1650 105.5980 147° Southeast 458 527 27,700 2,220 Climbing FlightAware
02:43PM 51.0920 105.6720 148° Southeast 483 556 29,100 1,140 Climbing FlightAware
02:44PM 51.0280 105.7410 146° Southeast 484 557 29,200 60 Climbing FlightAware
02:44PM 50.9660 105.8070 146° Southeast 484 557 29,200  Level FlightAware
02:45PM 50.9090 105.8680 146° Southeast 484 557 29,200  Level FlightAware
02:46PM 50.8530 105.9290 145° Southeast 484 557 29,200  Level FlightAware
02:46PM 50.7770 106.0090 146° Southeast 484 557 29,200  Level FlightAware
02:47PM 50.7180 106.0720 146° Southeast 484 557 29,200  Level FlightAware
02:50PM 50.5541 106.4444 125° Southeast  Level Estimated
02:51PM 50.4903 106.5879 125° Southeast  Level Estimated
02:52PM 50.4264 106.7310 125° Southeast  Level Estimated
02:53PM 50.3623 106.8737 125° Southeast  Level Estimated
02:54PM 50.2980 107.0160 125° Southeast  Level Estimated
02:55PM 50.2335 107.1580 125° Southeast  Level Estimated
02:56PM 50.1689 107.2995 125° Southeast  Level Estimated
02:57PM 50.1041 107.4407 126° Southeast  Level Estimated
02:58PM 50.0391 107.5815 126° Southeast  Level Estimated
02:59PM 49.9740 107.7218 126° Southeast  Level Estimated
03:00PM 49.9087 107.8619 126° Southeast  Level Estimated
03:01PM 49.8432 108.0015 126° Southeast  Level Estimated
03:02PM 49.7776 108.1408 126° Southeast  Level Estimated
03:03PM 49.7117 108.2797 126° Southeast  Level Estimated
03:04PM 49.6458 108.4182 126° Southeast  Level Estimated
03:05PM 49.5796 108.5563 126° Southeast  Level Estimated
03:06PM 49.5133 108.6941 127° Southeast  Level Estimated
03:07PM 49.4468 108.8315 127° Southeast  Level Estimated
03:08PM 49.3802 108.9685 127° Southeast  Level Estimated
03:09PM 49.3134 109.1051 127° Southeast  Level Estimated
03:10PM 49.2464 109.2414 127° Southeast  Level Estimated
03:11PM 49.1793 109.3773 127° Southeast  Level Estimated
03:12PM 49.1120 109.5128 127° Southeast  Level Estimated
03:13PM 49.0446 109.6480 127° Southeast  Level Estimated
03:14PM 48.9770 109.7828 127° Southeast  Level Estimated
03:15PM 48.9093 109.9172 127° Southeast  Level Estimated
03:16PM 48.8414 110.0513 128° Southeast  Level Estimated
03:17PM 48.7733 110.1850 128° Southeast  Level Estimated
03:18PM 48.7051 110.3183 128° Southeast  Level Estimated
03:19PM 48.6367 110.4513 128° Southeast  Level Estimated
03:20PM 48.5682 110.5839 128° Southeast  Level Estimated
03:21PM 48.4995 110.7162 128° Southeast  Level Estimated
03:22PM 48.4307 110.8481 128° Southeast  Level Estimated
03:23PM 48.3617 110.9797 128° Southeast  Level Estimated
03:24PM 48.2926 111.1108 128° Southeast  Level Estimated
03:25PM 48.2234 111.2417 128° Southeast  Level Estimated
03:26PM 48.1539 111.3722 129° Southeast  Level Estimated
03:27PM 48.0844 111.5023 129° Southeast  Level Estimated
03:28PM 48.0146 111.6321 129° Southeast  Level Estimated
03:29PM 47.9448 111.7615 129° Southeast  Level Estimated
03:30PM 47.8748 111.8906 129° Southeast  Level Estimated
03:31PM 47.8046 112.0193 129° Southeast  Level Estimated
03:32PM 47.7343 112.1477 129° Southeast  Level Estimated
03:33PM 47.6639 112.2757 129° Southeast  Level Estimated
03:34PM 47.5933 112.4034 129° Southeast  Level Estimated
03:35PM 47.5226 112.5308 129° Southeast  Level Estimated
03:36PM 47.4518 112.6578 129° Southeast  Level Estimated
03:37PM 47.3808 112.7844 130° Southeast  Level Estimated
03:38PM 47.3096 112.9108 130° Southeast  Level Estimated
03:39PM 47.2383 113.0367 130° Southeast  Level Estimated
03:40PM 47.1669 113.1624 130° Southeast  Level Estimated
03:41PM 47.0954 113.2877 130° Southeast  Level Estimated
03:42PM 47.0237 113.4126 130° Southeast  Level Estimated
03:43PM 46.9519 113.5373 130° Southeast  Level Estimated
03:44PM 46.8799 113.6616 130° Southeast  Level Estimated
03:45PM 46.8078 113.7855 130° Southeast  Level Estimated
03:46PM 46.7356 113.9092 130° Southeast  Level Estimated
03:47PM 46.6632 114.0325 131° Southeast  Level Estimated
03:48PM 46.5908 114.1554 131° Southeast  Level Estimated
03:49PM 46.5181 114.2781 131° Southeast  Level Estimated
03:50PM 46.4454 114.4004 131° Southeast  Level Estimated
03:51PM 46.3725 114.5224 131° Southeast  Level Estimated
03:52PM 46.2995 114.6440 131° Southeast  Level Estimated
03:53PM 46.2263 114.7654 131° Southeast  Level Estimated
03:54PM 46.1531 114.8864 131° Southeast  Level Estimated
03:55PM 46.0797 115.0071 131° Southeast  Level Estimated
03:56PM 46.0062 115.1274 131° Southeast  Level Estimated
03:57PM 45.9325 115.2475 131° Southeast  Level Estimated
03:58PM 45.8587 115.3672 131° Southeast  Level Estimated
03:59PM 45.7848 115.4866 132° Southeast  Level Estimated
04:00PM 45.7108 115.6057 132° Southeast  Level Estimated
04:01PM 45.6367 115.7245 132° Southeast  Level Estimated
04:02PM 45.5624 115.8430 132° Southeast  Level Estimated
04:03PM 45.4880 115.9611 132° Southeast  Level Estimated
04:04PM 45.4135 116.0790 132° Southeast  Level Estimated
04:05PM 45.3389 116.1965 132° Southeast  Level Estimated
04:06PM 45.2641 116.3137 132° Southeast  Level Estimated
04:07PM 45.1893 116.4306 132° Southeast  Level Estimated
04:08PM 45.1143 116.5472 132° Southeast  Level Estimated
04:09PM 45.0392 116.6636 132° Southeast  Level Estimated
04:10PM 44.9639 116.7795 132° Southeast  Level Estimated
04:11PM 44.8886 116.8952 133° Southeast  Level Estimated
04:12PM 44.8131 117.0106 133° Southeast  Level Estimated
04:13PM 44.7375 117.1257 133° Southeast  Level Estimated
04:14PM 44.6618 117.2405 133° Southeast  Level Estimated
04:15PM 44.5860 117.3550 133° Southeast  Level Estimated
04:16PM 44.5101 117.4692 133° Southeast  Level Estimated
04:17PM 44.4341 117.5831 133° Southeast  Level Estimated
04:18PM 44.3579 117.6967 133° Southeast  Level Estimated
04:19PM 44.2817 117.8100 133° Southeast  Level Estimated
04:20PM 44.2053 117.9230 133° Southeast  Level Estimated
04:21PM 44.1288 118.0357 133° Southeast  Level Estimated
04:22PM 44.0522 118.1481 133° Southeast  Level Estimated
04:23PM 43.9755 118.2602 134° Southeast  Level Estimated
04:24PM 43.8987 118.3721 134° Southeast  Level Estimated
04:25PM 43.8218 118.4836 134° Southeast  Level Estimated
04:26PM 43.7448 118.5949 134° Southeast  Level Estimated
04:27PM 43.6676 118.7059 134° Southeast  Level Estimated
04:28PM 43.5904 118.8166 134° Southeast  Level Estimated
04:29PM 43.5131 118.9270 134° Southeast  Level Estimated
04:30PM 43.4356 119.0371 134° Southeast  Level Estimated
04:31PM 43.3580 119.1470 134° Southeast  Level Estimated
04:32PM 43.2804 119.2565 134° Southeast  Level Estimated
04:33PM 43.2026 119.3658 134° Southeast  Level Estimated
04:34PM 43.1247 119.4748 134° Southeast  Level Estimated
04:35PM 43.0467 119.5835 134° Southeast  Level Estimated
04:36PM 42.9687 119.6920 135° Southeast  Level Estimated
04:37PM 42.8905 119.8002 135° Southeast  Level Estimated
04:38PM 42.8122 119.9081 135° Southeast  Level Estimated
04:39PM 42.7338 120.0157 135° Southeast  Level Estimated
04:40PM 42.6553 120.1231 135° Southeast  Level Estimated
04:41PM 42.5767 120.2301 135° Southeast  Level Estimated
04:42PM 42.4980 120.3370 135° Southeast  Level Estimated
04:43PM 42.4193 120.4435 135° Southeast  Level Estimated
04:44PM 42.3404 120.5498 135° Southeast  Level Estimated
04:45PM 42.2614 120.6558 135° Southeast  Level Estimated
04:46PM 42.1823 120.7616 135° Southeast  Level Estimated
04:47PM 42.1031 120.8671 135° Southeast  Level Estimated
04:48PM 42.0239 120.9723 135° Southeast  Level Estimated
04:49PM 41.9445 121.0772 135° Southeast  Level Estimated
04:50PM 41.8650 121.1819 136° Southeast  Level Estimated
04:51PM 41.7855 121.2864 136° Southeast  Level Estimated
04:52PM 41.7058 121.3906 136° Southeast  Level Estimated
04:53PM 41.6261 121.4945 136° Southeast  Level Estimated
04:54PM 41.5462 121.5982 136° Southeast  Level Estimated
04:55PM 41.4663 121.7016 136° Southeast  Level Estimated
04:56PM 41.3863 121.8047 136° Southeast  Level Estimated
04:57PM 41.3062 121.9076 136° Southeast  Level Estimated
04:58PM 41.2259 122.0103 136° Southeast  Level Estimated
04:59PM 41.1456 122.1127 136° Southeast  Level Estimated
05:00PM 41.0653 122.2148 136° Southeast  Level Estimated
05:01PM 40.9848 122.3167 136° Southeast  Level Estimated
05:02PM 40.9042 122.4184 136° Southeast  Level Estimated
05:03PM 40.8236 122.5198 136° Southeast  Level Estimated
05:04PM 40.7428 122.6209 136° Southeast  Level Estimated
05:05PM 40.6620 122.7218 137° Southeast  Level Estimated
05:06PM 40.5811 122.8225 137° Southeast  Level Estimated
05:07PM 40.5000 122.9229 137° Southeast  Level Estimated
05:08PM 40.4189 123.0231 137° Southeast  Level Estimated
05:09PM 40.3378 123.1230 137° Southeast  Level Estimated
05:10PM 40.2565 123.2227 137° Southeast  Level Estimated
05:11PM 40.1751 123.3222 137° Southeast  Level Estimated
05:12PM 40.0937 123.4214 137° Southeast  Level Estimated
05:13PM 40.0122 123.5204 137° Southeast  Level Estimated
05:14PM 39.9306 123.6191 137° Southeast  Level Estimated
05:15PM 39.8489 123.7176 137° Southeast  Level Estimated
05:16PM 39.7671 123.8159 137° Southeast  Level Estimated
05:17PM 39.6852 123.9139 137° Southeast  Level Estimated
05:18PM 39.6033 124.0118 137° Southeast  Level Estimated
05:19PM 39.5213 124.1093 137° Southeast  Level Estimated
05:20PM 39.4392 124.2067 138° Southeast  Level Estimated
05:21PM 39.3570 124.3038 138° Southeast  Level Estimated
05:22PM 39.2747 124.4007 138° Southeast  Level Estimated
05:23PM 39.1924 124.4974 138° Southeast  Level Estimated
05:24PM 39.1100 124.5938 138° Southeast  Level Estimated
05:25PM 39.0275 124.6900 138° Southeast  Level Estimated
05:26PM 38.9449 124.7860 138° Southeast  Level Estimated
05:27PM 38.8623 124.8818 138° Southeast  Level Estimated
05:28PM 38.7795 124.9773 138° Southeast  Level Estimated
05:29PM 38.6967 125.0726 138° Southeast  Level Estimated
05:30PM 38.6138 125.1677 138° Southeast  Level Estimated
05:31PM 38.5308 125.2626 138° Southeast  Level Estimated
05:32PM 38.4478 125.3573 138° Southeast  Level Estimated
05:33PM 38.3647 125.4517 138° Southeast  Level Estimated
05:34PM 38.2815 125.5459 138° Southeast  Level Estimated
05:35PM 38.1982 125.6399 138° Southeast  Level Estimated
05:36PM 38.1148 125.7337 138° Southeast  Level Estimated
05:37PM 38.0314 125.8273 139° Southeast  Level Estimated
05:38PM 37.9479 125.9207 139° Southeast  Level Estimated
05:39PM 37.8643 126.0138 139° Southeast  Level Estimated
05:40PM 37.7807 126.1068 139° Southeast  Level Estimated
05:41PM 37.6970 126.1995 139° Southeast  Level Estimated
05:42PM 37.6132 126.2920 139° Southeast  Level Estimated
05:43PM 37.5293 126.3844 139° Southeast  Level Estimated
05:44PM 37.4691 126.4505 139° Southeast  Level Estimated
05:45PM 37.4691 126.4505 335° Northwest  Level Estimated
05:46PM 37.4691 126.4505 335° Northwest  Level Estimated
05:47PM 37.4691 126.4505 335° Northwest  Level Estimated
05:48PM 37.4691 126.4505 335° Northwest  Level Estimated